Central De Minas, Brazil
Current Conditions -  °F | °C
As of 6:00 PM on Wednesday 26 Nov 2014 (Local Time) from SBIP Reporting Station
Broken Clouds Broken Clouds  
Wind Chill: 86°   Ceiling: 8000
Heat Index: 92°   Visibility: 6mi
Dew Point: 72°   Wind: 9mph
Humidity: 62%   Direction: 60°ENE
Pressure: 29.8"   Gusts: NA
Location:  18.76°S, 41.3°W
Report Text: SBIP 262000Z 06008KT 9999 SCT025 BKN080 30/22 Q1009
Loading
Personal Weather Stations






























Interactive Weather Map New forecast layout! Learn more

10-Day Weather Forecast

Advertisements
Track Severe Weather on mobile